Time;durP1;ratioP1;P1;durP2;ratioP2;P2;SDS_P1;SDS_P2;PMS_P1;PMS_P2;Temp;Humidity;BMP_temperature;BMP_pressure;BME280_temperature;BME280_humidity;BME280_pressure;Samples;Min_cycle;Max_cycle;Signal;HPM_P1;HPM_P2
2022/07/06 00:01:35;;;;;;;0.40;0.20;;;17.10;99.90;;;;;;5011302;28;20385;-71
2022/07/06 00:04:02;;;;;;;0.40;0.27;;;17.00;99.90;;;;;;5016854;28;20404;-71
2022/07/06 00:06:27;;;;;;;0.40;0.20;;;16.90;99.90;;;;;;5020931;28;20721;-71
2022/07/06 00:08:53;;;;;;;0.40;0.30;;;17.00;99.90;;;;;;5027837;28;20410;-71
2022/07/06 00:11:19;;;;;;;0.40;0.30;;;17.00;99.90;;;;;;5022607;28;20393;-71
2022/07/06 00:13:45;;;;;;;0.40;0.30;;;17.00;99.90;;;;;;5011610;28;20386;-71
2022/07/06 00:16:10;;;;;;;0.40;0.27;;;16.90;99.90;;;;;;5028559;28;20509;-71
2022/07/06 00:18:36;;;;;;;0.60;0.60;;;16.90;99.90;;;;;;5029906;28;20497;-71
2022/07/06 00:21:02;;;;;;;0.40;0.20;;;16.80;99.90;;;;;;5021432;28;20385;-71
2022/07/06 00:23:28;;;;;;;0.60;0.60;;;16.70;99.90;;;;;;5017807;28;20404;-72
2022/07/06 00:25:54;;;;;;;0.40;0.30;;;16.60;99.90;;;;;;5015396;28;20397;-71
2022/07/06 00:28:19;;;;;;;0.40;0.30;;;16.60;99.90;;;;;;5017977;28;20640;-71
2022/07/06 00:30:45;;;;;;;0.40;0.30;;;16.60;99.90;;;;;;5020223;28;20426;-71
2022/07/06 00:33:10;;;;;;;0.40;0.20;;;16.60;99.90;;;;;;5020324;28;20455;-71
2022/07/06 00:35:36;;;;;;;0.40;0.20;;;16.60;99.90;;;;;;5009643;28;20753;-71
2022/07/06 00:38:02;;;;;;;0.40;0.20;;;16.60;99.90;;;;;;5021350;28;20498;-71
2022/07/06 00:40:29;;;;;;;0.40;0.30;;;16.70;99.90;;;;;;5022014;28;20431;-71
2022/07/06 00:42:56;;;;;;;0.40;0.20;;;16.50;99.90;;;;;;5028005;28;20404;-71
2022/07/06 00:45:22;;;;;;;0.40;0.30;;;16.40;99.90;;;;;;5024628;28;20403;-71
2022/07/06 00:47:48;;;;;;;0.40;0.20;;;16.50;99.90;;;;;;5028733;28;20418;-71
2022/07/06 00:50:18;;;;;;;0.40;0.25;;;16.50;99.90;;;;;;5020156;28;20420;-71
2022/07/06 00:52:50;;;;;;;0.40;0.30;;;16.40;99.90;;;;;;5025948;28;20728;-71
2022/07/06 00:55:20;;;;;;;0.40;0.40;;;16.40;99.90;;;;;;5023361;28;20554;-71
2022/07/06 00:57:46;;;;;;;0.40;0.30;;;16.20;99.90;;;;;;5015047;28;20428;-71
2022/07/06 01:00:14;;;;;;;0.40;0.30;;;16.20;99.90;;;;;;5016103;28;20400;-71
2022/07/06 01:02:40;;;;;;;0.40;0.20;;;16.20;99.90;;;;;;5021450;28;20795;-71
2022/07/06 01:05:08;;;;;;;0.40;0.20;;;16.20;99.90;;;;;;5028181;28;20478;-72
2022/07/06 01:07:35;;;;;;;0.40;0.20;;;16.10;99.90;;;;;;5018073;28;20482;-71
2022/07/06 01:10:03;;;;;;;0.40;0.20;;;16.10;99.90;;;;;;5021718;28;20388;-71
2022/07/06 01:12:29;;;;;;;0.40;0.30;;;16.10;99.90;;;;;;5023303;28;20394;-71
2022/07/06 01:14:56;;;;;;;0.40;0.20;;;16.00;99.90;;;;;;5020204;28;20875;-71
2022/07/06 01:17:21;;;;;;;0.40;0.20;;;16.00;99.90;;;;;;5021441;28;20424;-71
2022/07/06 01:19:47;;;;;;;0.40;0.30;;;15.90;99.90;;;;;;5022289;28;20478;-71
2022/07/06 01:22:13;;;;;;;0.40;0.20;;;15.80;99.90;;;;;;5016762;28;20395;-71
2022/07/06 01:24:39;;;;;;;0.40;0.20;;;15.80;99.90;;;;;;5030154;28;20398;-71
2022/07/06 01:27:06;;;;;;;0.50;0.50;;;15.80;99.90;;;;;;5028192;28;20411;-71
2022/07/06 01:29:32;;;;;;;0.40;0.30;;;15.80;99.90;;;;;;5028729;28;20507;-71
2022/07/06 01:31:58;;;;;;;0.40;0.30;;;15.90;99.90;;;;;;5029999;28;20399;-71
2022/07/06 01:34:24;;;;;;;0.40;0.20;;;15.80;99.90;;;;;;5016621;28;20396;-71
2022/07/06 01:36:50;;;;;;;0.40;0.30;;;15.90;99.90;;;;;;5030705;28;20465;-71
2022/07/06 01:39:16;;;;;;;0.40;0.30;;;15.90;99.90;;;;;;5021008;28;20451;-71
2022/07/06 01:41:41;;;;;;;0.40;0.20;;;15.90;99.90;;;;;;5030774;28;20415;-71
2022/07/06 01:44:07;;;;;;;0.40;0.22;;;15.70;99.90;;;;;;5003959;28;20401;-71
2022/07/06 01:46:34;;;;;;;1.00;1.00;;;15.60;99.90;;;;;;5030507;28;20390;-71
2022/07/06 01:49:00;;;;;;;0.40;0.20;;;15.60;99.90;;;;;;5018296;28;20407;-71
2022/07/06 01:51:25;;;;;;;0.40;0.20;;;15.60;99.90;;;;;;5023346;28;20422;-71
2022/07/06 01:53:51;;;;;;;0.40;0.30;;;15.70;99.90;;;;;;5021184;28;20436;-71
2022/07/06 01:56:19;;;;;;;0.40;0.20;;;15.60;99.90;;;;;;5019576;28;20467;-71
2022/07/06 01:58:45;;;;;;;0.40;0.30;;;15.60;99.90;;;;;;5016917;28;20417;-71
2022/07/06 02:01:13;;;;;;;0.40;0.30;;;15.40;99.90;;;;;;5013338;28;20404;-71
2022/07/06 02:03:40;;;;;;;0.40;0.20;;;15.50;99.90;;;;;;5028765;28;20394;-71
2022/07/06 02:06:07;;;;;;;0.40;0.30;;;15.60;99.90;;;;;;5025530;28;20397;-71
2022/07/06 02:08:33;;;;;;;0.40;0.20;;;15.60;99.90;;;;;;5029764;28;20406;-71
2022/07/06 02:10:59;;;;;;;0.40;0.30;;;15.60;99.90;;;;;;5019143;28;20462;-71
2022/07/06 02:13:25;;;;;;;0.40;0.20;;;15.60;99.90;;;;;;5023252;28;20735;-71
2022/07/06 02:15:50;;;;;;;0.40;0.20;;;15.70;99.90;;;;;;5032304;28;20386;-71
2022/07/06 02:18:16;;;;;;;0.40;0.20;;;15.50;99.90;;;;;;5018144;28;20420;-71
2022/07/06 02:20:42;;;;;;;0.40;0.20;;;15.70;99.90;;;;;;5011708;28;20444;-71
2022/07/06 02:23:08;;;;;;;0.40;0.20;;;15.50;99.90;;;;;;5019607;28;20399;-71
2022/07/06 02:25:34;;;;;;;0.40;0.30;;;15.60;99.90;;;;;;5032110;28;20391;-71
2022/07/06 02:27:59;;;;;;;0.40;0.20;;;15.40;99.90;;;;;;5023214;28;20408;-71
2022/07/06 02:30:25;;;;;;;0.40;0.30;;;15.30;99.90;;;;;;5021174;28;20462;-71
2022/07/06 02:32:51;;;;;;;0.40;0.20;;;15.30;99.90;;;;;;5019824;28;20400;-70
2022/07/06 02:35:16;;;;;;;0.40;0.20;;;15.30;99.90;;;;;;5011538;28;20442;-71
2022/07/06 02:37:44;;;;;;;0.40;0.20;;;15.00;99.90;;;;;;5012357;28;20445;-70
2022/07/06 02:40:11;;;;;;;0.40;0.28;;;15.30;99.90;;;;;;5021926;28;20422;-71
2022/07/06 02:42:36;;;;;;;0.50;0.50;;;15.30;99.90;;;;;;5015849;28;20435;-71
2022/07/06 02:45:02;;;;;;;0.40;0.20;;;15.20;99.90;;;;;;5011909;28;20874;-71
2022/07/06 02:47:28;;;;;;;0.40;0.20;;;15.40;99.90;;;;;;5012164;28;20397;-71
2022/07/06 02:49:54;;;;;;;0.40;0.20;;;15.50;99.90;;;;;;5011926;28;20374;-71
2022/07/06 02:52:20;;;;;;;0.40;0.20;;;15.50;99.90;;;;;;5011547;28;20385;-71
2022/07/06 02:54:46;;;;;;;0.40;0.20;;;15.40;99.90;;;;;;5012023;28;20476;-71
2022/07/06 02:57:11;;;;;;;0.60;0.60;;;15.30;99.90;;;;;;5013569;28;20801;-71
2022/07/06 02:59:37;;;;;;;0.40;0.20;;;15.10;99.90;;;;;;5012155;28;20472;-71
2022/07/06 03:02:04;;;;;;;0.40;0.20;;;15.00;99.90;;;;;;5025664;28;20423;-71
2022/07/06 03:04:29;;;;;;;0.40;0.32;;;15.00;99.90;;;;;;5014703;28;20789;-71
2022/07/06 03:06:55;;;;;;;0.40;0.20;;;14.90;99.90;;;;;;5022990;28;20392;-71
2022/07/06 03:09:21;;;;;;;0.40;0.20;;;14.80;99.90;;;;;;5022943;28;20395;-71
2022/07/06 03:11:47;;;;;;;3.40;1.00;;;14.80;99.90;;;;;;5019144;28;20393;-71
2022/07/06 03:14:12;;;;;;;0.40;0.30;;;14.90;99.90;;;;;;5011360;28;20782;-71
2022/07/06 03:16:38;;;;;;;0.40;0.30;;;14.80;99.90;;;;;;5015066;28;20415;-71
2022/07/06 03:19:04;;;;;;;0.40;0.20;;;14.80;99.90;;;;;;5029629;28;20399;-71
2022/07/06 03:21:29;;;;;;;0.40;0.20;;;14.90;99.90;;;;;;5025745;28;20470;-70
2022/07/06 03:23:55;;;;;;;0.40;0.30;;;14.90;99.90;;;;;;5022868;28;20480;-70
2022/07/06 03:26:20;;;;;;;0.40;0.30;;;15.00;99.90;;;;;;5010764;28;20423;-71
2022/07/06 03:28:46;;;;;;;0.40;0.30;;;14.80;99.90;;;;;;5030241;28;20391;-71
2022/07/06 03:31:12;;;;;;;0.40;0.20;;;14.70;99.90;;;;;;5012717;28;20443;-71
2022/07/06 03:33:37;;;;;;;0.50;0.50;;;14.70;99.90;;;;;;5016174;28;20449;-71
2022/07/06 03:36:04;;;;;;;0.40;0.30;;;14.70;99.90;;;;;;5022111;28;20919;-71
2022/07/06 03:38:30;;;;;;;0.50;0.50;;;14.80;99.90;;;;;;5025845;28;20427;-71
2022/07/06 03:40:56;;;;;;;0.40;0.20;;;14.70;99.90;;;;;;5029507;28;20449;-71
2022/07/06 03:43:22;;;;;;;0.40;0.20;;;14.50;99.90;;;;;;5025090;28;20393;-71
2022/07/06 03:45:47;;;;;;;0.40;0.30;;;14.50;99.90;;;;;;5030366;28;20389;-71
2022/07/06 03:48:13;;;;;;;0.40;0.20;;;14.50;99.90;;;;;;5027611;28;20393;-71
2022/07/06 03:50:39;;;;;;;0.40;0.20;;;14.40;99.90;;;;;;5026099;28;20454;-71
2022/07/06 03:53:05;;;;;;;0.80;0.60;;;14.70;99.90;;;;;;5011978;28;20392;-71
2022/07/06 03:55:30;;;;;;;0.40;0.40;;;14.60;99.90;;;;;;5011201;28;20825;-71
2022/07/06 03:57:56;;;;;;;0.40;0.25;;;14.50;99.90;;;;;;5010198;28;20424;-71
2022/07/06 04:00:21;;;;;;;0.40;0.30;;;14.30;99.90;;;;;;5029591;28;20422;-71
2022/07/06 04:02:47;;;;;;;0.40;0.30;;;14.30;99.90;;;;;;5023688;28;20396;-71
2022/07/06 04:05:13;;;;;;;0.40;0.20;;;14.40;99.90;;;;;;5011357;28;20395;-71
2022/07/06 04:07:38;;;;;;;0.40;0.20;;;14.40;99.90;;;;;;5025549;28;20420;-70
2022/07/06 04:10:05;;;;;;;0.40;0.30;;;14.40;99.90;;;;;;5014272;28;20853;-71
2022/07/06 04:12:31;;;;;;;0.40;0.30;;;14.50;99.90;;;;;;5021835;28;20729;-71
2022/07/06 04:14:57;;;;;;;0.40;0.20;;;14.40;99.90;;;;;;5030292;28;20478;-71
2022/07/06 04:20:09;;;;;;;0.40;0.30;;;14.40;99.90;;;;;;5026662;28;20457;-71
2022/07/06 04:22:38;;;;;;;0.40;0.20;;;14.40;99.90;;;;;;5030478;28;20430;-71
2022/07/06 04:25:04;;;;;;;0.40;0.20;;;14.30;99.90;;;;;;5029320;28;20490;-72
2022/07/06 04:27:30;;;;;;;0.40;0.20;;;14.40;99.90;;;;;;5018207;28;20404;-71
2022/07/06 04:29:55;;;;;;;0.40;0.30;;;14.40;99.90;;;;;;5025773;28;20476;-71
2022/07/06 04:32:21;;;;;;;0.40;0.20;;;14.50;99.90;;;;;;5029506;28;20394;-71
2022/07/06 04:34:46;;;;;;;0.40;0.30;;;14.50;99.90;;;;;;5028070;28;20876;-71
2022/07/06 04:37:12;;;;;;;0.40;0.30;;;14.50;99.90;;;;;;5026843;28;20465;-71
2022/07/06 04:39:38;;;;;;;0.60;0.60;;;14.30;99.90;;;;;;5012149;28;20399;-71
2022/07/06 04:42:03;;;;;;;0.40;0.30;;;14.40;99.90;;;;;;5024657;28;20914;-70
2022/07/06 04:44:29;;;;;;;0.40;0.30;;;14.40;99.90;;;;;;5016527;28;20454;-71
2022/07/06 04:46:55;;;;;;;0.40;0.30;;;14.60;99.90;;;;;;5022265;28;20488;-71
2022/07/06 04:49:20;;;;;;;0.40;0.20;;;14.50;99.90;;;;;;5018648;28;20423;-71
2022/07/06 04:51:46;;;;;;;0.40;0.20;;;14.50;99.90;;;;;;5017555;28;20423;-71
2022/07/06 04:54:12;;;;;;;0.40;0.20;;;14.50;99.90;;;;;;5019022;28;20420;-71
2022/07/06 04:56:37;;;;;;;0.40;0.20;;;14.50;99.90;;;;;;5001310;28;20428;-71
2022/07/06 04:59:03;;;;;;;0.40;0.20;;;14.70;99.90;;;;;;5018530;28;20891;-71
2022/07/06 05:01:29;;;;;;;0.40;0.30;;;14.70;99.90;;;;;;5015181;28;20442;-70
2022/07/06 05:03:54;;;;;;;0.40;0.40;;;14.80;99.90;;;;;;5017457;28;20479;-70
2022/07/06 05:06:20;;;;;;;0.40;0.30;;;14.90;99.90;;;;;;5014203;28;20986;-70
2022/07/06 05:08:46;;;;;;;0.40;0.20;;;14.90;99.90;;;;;;5017483;28;20393;-70
2022/07/06 05:11:11;;;;;;;0.40;0.20;;;15.00;99.90;;;;;;5015480;28;20417;-70
2022/07/06 05:13:37;;;;;;;0.40;0.20;;;15.00;99.90;;;;;;5021131;28;20396;-70
2022/07/06 05:16:03;;;;;;;0.40;0.30;;;15.10;99.90;;;;;;5022912;28;20428;-70
2022/07/06 05:18:30;;;;;;;0.40;0.30;;;15.20;99.90;;;;;;5016058;28;20913;-70
2022/07/06 05:20:55;;;;;;;0.40;0.20;;;15.20;99.90;;;;;;5020069;28;20807;-71
2022/07/06 05:23:21;;;;;;;0.40;0.30;;;15.30;99.90;;;;;;5020097;28;20384;-70
2022/07/06 05:25:47;;;;;;;0.40;0.20;;;15.30;99.90;;;;;;4996530;28;20408;-70
2022/07/06 05:28:13;;;;;;;0.40;0.27;;;15.40;99.90;;;;;;5029156;28;20415;-70
2022/07/06 05:30:38;;;;;;;0.40;0.20;;;15.50;99.90;;;;;;5024536;28;20411;-71
2022/07/06 05:33:04;;;;;;;0.50;0.50;;;15.50;99.90;;;;;;5023666;28;20399;-72
2022/07/06 05:35:30;;;;;;;0.50;0.50;;;15.50;99.90;;;;;;5016398;28;20467;-71
2022/07/06 05:37:56;;;;;;;0.40;0.20;;;15.60;99.90;;;;;;5024588;28;20438;-70
2022/07/06 05:40:22;;;;;;;0.40;0.20;;;15.70;99.90;;;;;;5032123;28;20480;-70
2022/07/06 05:42:47;;;;;;;0.40;0.20;;;15.70;99.90;;;;;;5015334;28;20889;-70
2022/07/06 05:45:14;;;;;;;0.40;0.30;;;15.80;99.90;;;;;;5011990;28;20741;-71
2022/07/06 05:50:24;;;;;;;0.40;0.20;;;16.20;99.90;;;;;;5032174;28;20366;-70
2022/07/06 05:53:02;;;;;;;0.40;0.20;;;16.40;99.90;;;;;;5019456;28;20495;-71
2022/07/06 05:55:27;;;;;;;0.40;0.20;;;16.50;99.90;;;;;;5013248;28;20438;-71
2022/07/06 05:57:55;;;;;;;0.40;0.20;;;16.60;99.90;;;;;;5024016;28;20430;-71
2022/07/06 06:00:24;;;;;;;0.40;0.20;;;16.60;99.90;;;;;;5019462;28;20412;-71
2022/07/06 06:02:50;;;;;;;0.40;0.20;;;16.70;99.90;;;;;;5028305;28;20470;-71
2022/07/06 06:05:17;;;;;;;0.40;0.30;;;16.80;99.90;;;;;;5012120;28;20788;-71
2022/07/06 06:07:43;;;;;;;0.40;0.30;;;16.80;99.90;;;;;;5023171;28;20493;-71
2022/07/06 06:10:11;;;;;;;0.50;0.40;;;16.80;99.90;;;;;;5031228;28;20843;-71
2022/07/06 06:12:38;;;;;;;0.40;0.30;;;16.90;99.90;;;;;;5025929;28;20453;-71
2022/07/06 06:15:04;;;;;;;0.40;0.20;;;16.90;99.90;;;;;;5032166;28;20478;-71
2022/07/06 06:17:31;;;;;;;0.40;0.22;;;16.90;99.90;;;;;;5028134;28;20490;-71
2022/07/06 06:19:57;;;;;;;0.60;0.60;;;16.90;99.90;;;;;;5030033;28;20383;-70
2022/07/06 06:22:23;;;;;;;0.40;0.20;;;16.90;99.90;;;;;;5015662;28;20550;-71
2022/07/06 06:24:49;;;;;;;0.40;0.30;;;16.90;99.90;;;;;;5024519;28;20402;-71
2022/07/06 06:27:15;;;;;;;0.40;0.30;;;17.00;99.90;;;;;;5031249;28;20442;-71
2022/07/06 06:29:41;;;;;;;0.80;0.80;;;17.20;99.90;;;;;;5032252;28;20399;-71
2022/07/06 06:32:08;;;;;;;0.40;0.30;;;17.20;99.90;;;;;;5029930;28;20403;-71
2022/07/06 06:34:33;;;;;;;0.40;0.20;;;17.30;99.90;;;;;;5012456;28;20446;-71
2022/07/06 06:37:00;;;;;;;0.40;0.22;;;17.40;99.90;;;;;;5020255;28;20414;-71
2022/07/06 06:39:25;;;;;;;0.40;0.20;;;17.40;99.90;;;;;;5019473;28;20505;-70
2022/07/06 06:41:51;;;;;;;0.40;0.20;;;17.40;99.90;;;;;;5026704;28;20818;-71
2022/07/06 06:44:17;;;;;;;0.40;0.30;;;17.50;99.90;;;;;;5003727;28;20484;-70
2022/07/06 06:46:43;;;;;;;0.40;0.20;;;17.50;99.90;;;;;;5012150;28;20435;-70
2022/07/06 06:49:10;;;;;;;0.40;0.28;;;17.50;99.90;;;;;;5011627;28;20389;-70
2022/07/06 06:51:38;;;;;;;0.40;0.28;;;17.60;99.90;;;;;;5019542;28;20718;-70
2022/07/06 06:54:04;;;;;;;0.50;0.50;;;17.70;99.90;;;;;;5011496;28;20921;-71
2022/07/06 06:56:29;;;;;;;0.40;0.25;;;17.70;99.90;;;;;;5023283;28;20497;-70
2022/07/06 06:58:55;;;;;;;0.40;0.22;;;17.70;99.90;;;;;;5032164;28;20383;-71
2022/07/06 07:01:21;;;;;;;0.60;0.60;;;17.80;99.90;;;;;;5031029;28;20438;-70
2022/07/06 07:03:47;;;;;;;0.57;0.53;;;17.80;99.90;;;;;;5032060;28;20379;-71
2022/07/06 07:06:12;;;;;;;0.40;0.40;;;17.80;99.90;;;;;;5030130;28;20383;-70
2022/07/06 07:08:38;;;;;;;0.40;0.30;;;17.90;99.90;;;;;;5031255;28;20394;-70
2022/07/06 07:11:04;;;;;;;0.40;0.30;;;18.10;99.90;;;;;;5025753;28;20942;-71
2022/07/06 07:13:29;;;;;;;0.40;0.30;;;18.10;99.90;;;;;;5012598;28;20468;-69
2022/07/06 07:15:55;;;;;;;0.70;0.70;;;18.10;99.90;;;;;;5013533;28;20888;-70
2022/07/06 07:18:21;;;;;;;0.40;0.30;;;17.90;99.90;;;;;;5030312;28;20442;-70
2022/07/06 07:20:46;;;;;;;0.50;0.50;;;18.10;99.90;;;;;;5022106;28;20504;-70
2022/07/06 07:23:12;;;;;;;0.40;0.30;;;18.20;99.90;;;;;;5017203;28;20928;-70
2022/07/06 07:25:40;;;;;;;0.40;0.30;;;18.10;99.90;;;;;;5011510;28;20385;-70
2022/07/06 07:28:06;;;;;;;0.40;0.30;;;18.20;99.90;;;;;;5012181;28;20397;-71
2022/07/06 07:30:32;;;;;;;0.80;0.80;;;18.20;99.90;;;;;;5025336;28;20402;-70
2022/07/06 07:33:00;;;;;;;0.40;0.20;;;18.10;99.90;;;;;;5011817;28;21152;-70
2022/07/06 07:35:26;;;;;;;0.40;0.30;;;18.20;99.90;;;;;;5018204;28;20674;-70
2022/07/06 07:37:52;;;;;;;0.40;0.30;;;18.30;99.90;;;;;;5027596;28;20414;-70
2022/07/06 07:40:17;;;;;;;0.40;0.30;;;18.40;99.90;;;;;;5025603;28;20399;-70
2022/07/06 07:42:44;;;;;;;0.40;0.40;;;18.40;99.90;;;;;;5015835;28;20399;-72
2022/07/06 07:45:11;;;;;;;0.40;0.20;;;18.30;99.90;;;;;;5010350;28;20417;-71
2022/07/06 07:47:37;;;;;;;0.40;0.25;;;18.20;99.90;;;;;;4994816;28;20873;-71
2022/07/06 07:50:03;;;;;;;0.40;0.30;;;18.40;99.90;;;;;;5025603;28;20406;-71
2022/07/06 07:52:28;;;;;;;0.40;0.30;;;18.40;99.90;;;;;;5018938;28;20851;-72
2022/07/06 07:54:54;;;;;;;0.40;0.20;;;18.40;99.90;;;;;;5027332;28;20488;-71
2022/07/06 07:57:20;;;;;;;0.40;0.30;;;18.50;99.90;;;;;;5010138;28;20433;-70
2022/07/06 07:59:45;;;;;;;0.40;0.30;;;18.70;99.90;;;;;;5011481;28;20397;-71
2022/07/06 08:02:11;;;;;;;0.40;0.30;;;18.80;99.90;;;;;;5010619;28;20392;-70
2022/07/06 08:04:37;;;;;;;0.40;0.30;;;18.70;99.90;;;;;;5011162;28;20385;-71
2022/07/06 08:07:02;;;;;;;0.40;0.20;;;18.60;99.90;;;;;;5011323;28;20746;-71
2022/07/06 08:09:28;;;;;;;2.60;1.30;;;18.50;99.90;;;;;;5011088;28;20384;-70
2022/07/06 08:11:54;;;;;;;0.40;0.20;;;18.50;99.90;;;;;;5022573;28;20395;-71
2022/07/06 08:14:20;;;;;;;0.40;0.20;;;18.90;99.90;;;;;;5005022;28;20469;-71
2022/07/06 08:16:46;;;;;;;0.45;0.45;;;19.00;99.90;;;;;;5010118;28;20507;-71
2022/07/06 08:19:14;;;;;;;0.40;0.30;;;18.90;99.90;;;;;;5009862;28;20741;-71
2022/07/06 08:21:40;;;;;;;0.40;0.30;;;19.00;99.90;;;;;;5011016;28;20380;-70
2022/07/06 08:24:07;;;;;;;0.40;0.20;;;19.00;99.90;;;;;;5010709;28;20431;-70
2022/07/06 08:26:32;;;;;;;0.40;0.20;;;19.10;99.90;;;;;;5010263;28;20393;-71
2022/07/06 08:28:58;;;;;;;0.40;0.20;;;19.20;99.90;;;;;;5010187;28;20380;-70
2022/07/06 08:31:25;;;;;;;0.60;0.60;;;19.10;99.90;;;;;;5009405;28;20435;-71
2022/07/06 08:33:53;;;;;;;0.40;0.20;;;19.10;99.90;;;;;;5023189;28;20397;-71
2022/07/06 08:36:19;;;;;;;0.40;0.20;;;19.30;99.90;;;;;;5010509;28;20425;-70
2022/07/06 08:38:45;;;;;;;0.40;0.30;;;19.30;99.90;;;;;;4992413;28;20941;-70
2022/07/06 08:41:12;;;;;;;0.40;0.20;;;19.30;99.90;;;;;;5009941;28;20389;-70
2022/07/06 08:43:38;;;;;;;0.40;0.30;;;19.50;99.90;;;;;;5022823;28;20398;-70
2022/07/06 08:46:06;;;;;;;0.40;0.20;;;19.50;99.90;;;;;;5010343;28;20381;-71
2022/07/06 08:48:36;;;;;;;0.50;0.47;;;19.60;99.90;;;;;;5009881;28;20381;-71
2022/07/06 08:51:03;;;;;;;0.60;0.60;;;19.60;99.90;;;;;;5028627;28;20756;-70
2022/07/06 08:53:29;;;;;;;0.40;0.30;;;19.60;99.90;;;;;;5012771;28;20471;-71
2022/07/06 08:55:55;;;;;;;0.80;0.80;;;19.70;99.90;;;;;;5010374;28;20758;-71
2022/07/06 08:58:24;;;;;;;0.40;0.20;;;19.90;99.90;;;;;;5008627;28;20428;-71
2022/07/06 09:00:50;;;;;;;0.40;0.20;;;20.00;99.90;;;;;;5010203;28;20393;-71
2022/07/06 09:03:16;;;;;;;0.40;0.20;;;20.10;99.90;;;;;;5009266;28;20443;-72
2022/07/06 09:05:46;;;;;;;0.40;0.20;;;20.10;99.90;;;;;;5013613;28;20400;-71
2022/07/06 09:08:12;;;;;;;0.40;0.30;;;20.20;99.90;;;;;;4999387;28;20416;-72
2022/07/06 09:10:38;;;;;;;0.40;0.20;;;20.10;99.90;;;;;;5010936;28;20451;-71
2022/07/06 09:13:08;;;;;;;0.40;0.20;;;20.20;99.90;;;;;;5011010;28;20903;-71
2022/07/06 09:15:38;;;;;;;0.40;0.30;;;20.30;99.90;;;;;;5021766;28;20795;-71
2022/07/06 09:18:05;;;;;;;0.40;0.20;;;20.30;99.90;;;;;;5029434;28;20962;-72
2022/07/06 09:20:31;;;;;;;0.40;0.20;;;20.20;99.90;;;;;;5024029;28;20405;-73
2022/07/06 09:23:00;;;;;;;0.40;0.20;;;20.30;99.90;;;;;;5024332;28;20400;-72
2022/07/06 09:25:26;;;;;;;0.40;0.30;;;20.40;99.90;;;;;;5024684;28;20483;-72
2022/07/06 09:27:56;;;;;;;0.40;0.20;;;20.60;99.90;;;;;;5017656;28;20413;-71
2022/07/06 09:30:24;;;;;;;0.40;0.30;;;20.60;99.90;;;;;;5009547;28;20434;-72
2022/07/06 09:32:53;;;;;;;0.40;0.30;;;20.70;99.90;;;;;;5010346;28;20403;-71
2022/07/06 09:35:27;;;;;;;0.40;0.30;;;20.70;99.90;;;;;;5009054;28;20391;-71
2022/07/06 09:38:08;;;;;;;0.40;0.25;;;20.70;99.90;;;;;;5010426;28;20883;-71
2022/07/06 09:40:37;;;;;;;0.40;0.20;;;20.80;99.90;;;;;;4993004;28;20420;-71
2022/07/06 09:43:12;;;;;;;1.50;1.10;;;20.80;99.90;;;;;;5010559;28;20435;-71
2022/07/06 09:45:39;;;;;;;0.40;0.30;;;20.90;98.90;;;;;;5014644;28;20423;-71
2022/07/06 09:48:18;;;;;;;0.40;0.20;;;21.00;98.30;;;;;;5008147;28;20807;-71
2022/07/06 09:50:46;;;;;;;0.40;0.30;;;21.00;97.60;;;;;;5012935;28;20407;-70
2022/07/06 09:53:13;;;;;;;0.40;0.30;;;21.10;97.70;;;;;;5025279;28;20403;-70
2022/07/06 09:55:44;;;;;;;0.40;0.30;;;21.00;98.20;;;;;;5029887;28;20379;-71
2022/07/06 09:58:09;;;;;;;0.40;0.30;;;21.10;98.40;;;;;;5026870;28;20847;-70
2022/07/06 10:00:35;;;;;;;0.40;0.20;;;21.20;98.70;;;;;;5018733;28;20537;-71
2022/07/06 10:03:02;;;;;;;0.47;0.40;;;21.20;98.90;;;;;;5012264;28;20863;-70
2022/07/06 10:05:29;;;;;;;0.40;0.30;;;21.30;98.50;;;;;;5022152;28;20387;-69
2022/07/06 10:08:00;;;;;;;0.40;0.30;;;21.30;97.40;;;;;;5019428;28;20445;-72
2022/07/06 10:10:28;;;;;;;0.40;0.20;;;21.30;97.20;;;;;;5029386;28;20387;-72
2022/07/06 10:12:57;;;;;;;0.40;0.40;;;21.50;96.60;;;;;;5030151;28;20395;-71
2022/07/06 10:15:28;;;;;;;0.40;0.20;;;21.50;95.00;;;;;;5028761;28;20376;-70
2022/07/06 10:17:56;;;;;;;0.40;0.20;;;21.40;93.60;;;;;;5022444;28;20416;-72
2022/07/06 10:20:22;;;;;;;0.40;0.30;;;21.60;93.80;;;;;;5023712;28;20515;-71
2022/07/06 10:22:49;;;;;;;0.40;0.20;;;21.80;94.30;;;;;;5020648;28;20396;-72
2022/07/06 10:25:17;;;;;;;0.40;0.20;;;21.80;93.20;;;;;;5006925;28;20383;-71
2022/07/06 10:27:44;;;;;;;0.40;0.30;;;21.90;92.20;;;;;;5009270;28;20952;-71
2022/07/06 10:30:11;;;;;;;0.40;0.30;;;22.10;90.20;;;;;;5021495;28;20383;-72
2022/07/06 10:32:40;;;;;;;0.40;0.30;;;22.10;87.30;;;;;;5009344;28;20373;-70
2022/07/06 10:35:06;;;;;;;0.40;0.20;;;22.10;88.60;;;;;;5016997;28;20393;-71
2022/07/06 10:37:33;;;;;;;0.40;0.20;;;22.10;90.20;;;;;;5020705;28;20425;-71
2022/07/06 10:42:55;;;;;;;0.40;0.20;;;22.10;89.10;;;;;;5009882;28;20392;-71
2022/07/06 10:45:29;;;;;;;0.40;0.20;;;22.20;89.40;;;;;;5010740;28;20431;-70
2022/07/06 10:48:10;;;;;;;0.40;0.20;;;22.30;86.70;;;;;;5018388;28;20450;-71
2022/07/06 10:50:59;;;;;;;0.50;0.50;;;22.40;88.20;;;;;;5008793;28;20408;-71
2022/07/06 10:53:32;;;;;;;0.40;0.30;;;22.40;86.50;;;;;;5021869;28;20506;-72
2022/07/06 10:55:58;;;;;;;0.40;0.20;;;22.60;84.60;;;;;;5028663;28;20466;-72
2022/07/06 10:58:36;;;;;;;0.40;0.20;;;22.60;83.10;;;;;;5019421;28;21103;-71
2022/07/06 11:01:04;;;;;;;0.40;0.30;;;22.80;89.10;;;;;;5009258;28;20385;-71
2022/07/06 11:03:37;;;;;;;0.40;0.40;;;22.80;82.80;;;;;;5008703;28;20393;-70
2022/07/06 11:06:12;;;;;;;0.40;0.20;;;22.80;85.10;;;;;;5020626;28;20409;-73
2022/07/06 11:09:05;;;;;;;0.40;0.30;;;22.70;86.90;;;;;;5028720;28;20403;-72
2022/07/06 11:11:33;;;;;;;0.40;0.20;;;22.70;85.70;;;;;;5024746;28;20449;-71
2022/07/06 11:14:01;;;;;;;0.60;0.40;;;22.60;85.70;;;;;;5028735;28;20391;-70
2022/07/06 11:16:36;;;;;;;0.40;0.30;;;22.60;84.30;;;;;;5010282;28;20455;-71
2022/07/06 11:19:10;;;;;;;0.40;0.28;;;22.90;85.80;;;;;;5028357;28;20399;-73
2022/07/06 11:21:48;;;;;;;0.40;0.30;;;23.20;83.70;;;;;;5020955;28;20432;-69
2022/07/06 11:24:17;;;;;;;0.75;0.52;;;23.10;82.80;;;;;;5008009;28;20475;-71
2022/07/06 11:26:46;;;;;;;0.40;0.20;;;22.80;82.00;;;;;;5011614;28;20403;-70
2022/07/06 11:29:13;;;;;;;0.50;0.50;;;23.00;82.80;;;;;;5012646;28;20454;-71
2022/07/06 11:31:41;;;;;;;0.40;0.20;;;23.30;81.50;;;;;;5008236;28;20416;-72
2022/07/06 11:34:08;;;;;;;0.40;0.20;;;23.60;79.30;;;;;;5008919;28;20385;-71
2022/07/06 11:36:35;;;;;;;0.40;0.28;;;23.60;76.30;;;;;;5021487;28;20395;-72
2022/07/06 11:39:05;;;;;;;0.40;0.30;;;23.60;75.10;;;;;;5028392;28;20449;-72
2022/07/06 11:41:31;;;;;;;0.40;0.20;;;23.80;75.40;;;;;;5024115;28;20403;-71
2022/07/06 11:43:57;;;;;;;0.40;0.20;;;24.30;74.60;;;;;;5014547;28;20879;-72
2022/07/06 11:46:27;;;;;;;0.40;0.30;;;24.90;71.10;;;;;;5014409;28;20396;-70
2022/07/06 11:48:56;;;;;;;0.40;0.20;;;25.40;68.20;;;;;;5026299;28;20474;-71
2022/07/06 11:51:24;;;;;;;0.50;0.40;;;26.00;66.90;;;;;;5017727;28;20897;-72
2022/07/06 11:53:54;;;;;;;0.40;0.20;;;26.10;62.70;;;;;;5027118;28;20471;-70
2022/07/06 11:56:22;;;;;;;0.40;0.20;;;26.60;60.50;;;;;;5026715;28;20486;-70
2022/07/06 11:58:52;;;;;;;0.40;0.20;;;25.80;61.70;;;;;;5027625;28;20476;-72
2022/07/06 12:01:18;;;;;;;0.40;0.20;;;25.70;67.60;;;;;;5027126;28;20414;-70
2022/07/06 12:03:44;;;;;;;0.40;0.30;;;25.90;65.80;;;;;;5011930;28;20397;-73
2022/07/06 12:06:21;;;;;;;0.40;0.30;;;26.00;66.60;;;;;;5010668;28;20425;-72
2022/07/06 12:08:52;;;;;;;0.40;0.30;;;26.30;62.70;;;;;;5008052;28;20392;-71
2022/07/06 12:11:26;;;;;;;0.40;0.20;;;27.10;65.00;;;;;;5007499;28;20471;-72
2022/07/06 12:13:54;;;;;;;0.50;0.30;;;28.00;60.00;;;;;;5008336;28;20406;-72
2022/07/06 12:16:23;;;;;;;0.40;0.30;;;27.70;61.50;;;;;;5007252;28;20723;-71
2022/07/06 12:18:51;;;;;;;0.40;0.30;;;28.40;62.90;;;;;;5020272;28;20438;-70
2022/07/06 12:21:20;;;;;;;0.40;0.20;;;27.20;62.30;;;;;;5007272;28;20412;-70
2022/07/06 12:23:51;;;;;;;0.40;0.20;;;27.60;64.60;;;;;;5008380;28;20384;-69
2022/07/06 12:26:25;;;;;;;0.40;0.20;;;27.90;59.60;;;;;;5011199;28;20433;-70
2022/07/06 12:29:14;;;;;;;0.40;0.20;;;27.50;64.70;;;;;;5027836;28;20387;-70
2022/07/06 12:31:43;;;;;;;0.40;0.20;;;27.10;59.60;;;;;;5028009;28;20383;-69
2022/07/06 12:34:22;;;;;;;0.40;0.20;;;26.90;58.50;;;;;;5027705;28;20391;-69
2022/07/06 12:36:55;;;;;;;0.40;0.20;;;27.90;63.70;;;;;;5012118;28;20439;-68
2022/07/06 12:39:29;;;;;;;0.40;0.20;;;28.70;57.30;;;;;;5007079;28;20418;-68
2022/07/06 12:42:00;;;;;;;0.40;0.30;;;28.60;57.20;;;;;;5011652;28;20391;-69
2022/07/06 12:44:26;;;;;;;0.40;0.20;;;27.50;57.10;;;;;;5026979;28;20379;-70
2022/07/06 12:47:09;;;;;;;0.40;0.20;;;26.70;59.10;;;;;;5028005;28;20421;-68
2022/07/06 12:49:36;;;;;;;0.40;0.20;;;27.50;56.90;;;;;;5026739;28;20705;-70
2022/07/06 12:52:02;;;;;;;0.40;0.30;;;27.80;57.90;;;;;;5023096;28;20670;-71
2022/07/06 12:54:32;;;;;;;1.00;0.90;;;26.80;59.30;;;;;;5025657;28;20471;-69
2022/07/06 12:57:14;;;;;;;0.40;0.20;;;26.70;60.00;;;;;;5026947;28;20450;-69